sensor_id;sensor_type;location;lat;lon;timestamp;P1;durP1;ratioP1;P2;durP2;ratioP2
29728;SDS011;20055;51.498;11.960;2023-11-19T00:00:59;11.02;;;5.80;;
29728;SDS011;20055;51.498;11.960;2023-11-19T00:03:25;12.75;;;5.05;;
29728;SDS011;20055;51.498;11.960;2023-11-19T00:05:52;9.40;;;5.85;;
29728;SDS011;20055;51.498;11.960;2023-11-19T00:08:18;9.60;;;4.57;;
29728;SDS011;20055;51.498;11.960;2023-11-19T00:10:44;6.63;;;4.30;;
29728;SDS011;20055;51.498;11.960;2023-11-19T00:13:12;7.60;;;4.03;;
29728;SDS011;20055;51.498;11.960;2023-11-19T00:15:38;5.25;;;3.63;;
29728;SDS011;20055;51.498;11.960;2023-11-19T00:18:04;13.50;;;3.60;;
29728;SDS011;20055;51.498;11.960;2023-11-19T00:20:31;8.90;;;4.22;;
29728;SDS011;20055;51.498;11.960;2023-11-19T00:22:57;4.82;;;2.97;;
29728;SDS011;20055;51.498;11.960;2023-11-19T00:25:23;5.13;;;3.15;;
29728;SDS011;20055;51.498;11.960;2023-11-19T00:27:51;4.05;;;2.90;;
29728;SDS011;20055;51.498;11.960;2023-11-19T00:30:19;4.82;;;3.30;;
29728;SDS011;20055;51.498;11.960;2023-11-19T00:32:45;6.28;;;3.40;;
29728;SDS011;20055;51.498;11.960;2023-11-19T00:35:11;5.07;;;3.30;;
29728;SDS011;20055;51.498;11.960;2023-11-19T00:37:39;5.32;;;2.95;;
29728;SDS011;20055;51.498;11.960;2023-11-19T00:40:08;4.00;;;2.80;;
29728;SDS011;20055;51.498;11.960;2023-11-19T00:42:36;6.30;;;3.20;;
29728;SDS011;20055;51.498;11.960;2023-11-19T00:45:04;3.90;;;2.78;;
29728;SDS011;20055;51.498;11.960;2023-11-19T00:47:35;7.30;;;3.38;;
29728;SDS011;20055;51.498;11.960;2023-11-19T00:50:04;5.20;;;3.50;;
29728;SDS011;20055;51.498;11.960;2023-11-19T00:52:31;6.68;;;3.25;;
29728;SDS011;20055;51.498;11.960;2023-11-19T00:54:58;6.28;;;3.38;;
29728;SDS011;20055;51.498;11.960;2023-11-19T00:57:24;6.57;;;3.70;;
29728;SDS011;20055;51.498;11.960;2023-11-19T00:59:52;3.92;;;3.00;;
29728;SDS011;20055;51.498;11.960;2023-11-19T01:02:18;8.52;;;3.95;;
29728;SDS011;20055;51.498;11.960;2023-11-19T01:04:45;6.82;;;4.15;;
29728;SDS011;20055;51.498;11.960;2023-11-19T01:07:11;6.72;;;4.13;;
29728;SDS011;20055;51.498;11.960;2023-11-19T01:09:38;8.52;;;4.10;;
29728;SDS011;20055;51.498;11.960;2023-11-19T01:12:07;8.35;;;3.72;;
29728;SDS011;20055;51.498;11.960;2023-11-19T01:14:34;4.78;;;3.40;;
29728;SDS011;20055;51.498;11.960;2023-11-19T01:17:01;5.10;;;3.40;;
29728;SDS011;20055;51.498;11.960;2023-11-19T01:19:27;5.82;;;3.85;;
29728;SDS011;20055;51.498;11.960;2023-11-19T01:21:54;4.68;;;3.10;;
29728;SDS011;20055;51.498;11.960;2023-11-19T01:24:21;5.13;;;3.58;;
29728;SDS011;20055;51.498;11.960;2023-11-19T01:26:47;6.63;;;4.47;;
29728;SDS011;20055;51.498;11.960;2023-11-19T01:29:14;7.95;;;4.10;;
29728;SDS011;20055;51.498;11.960;2023-11-19T01:31:45;5.50;;;4.10;;
29728;SDS011;20055;51.498;11.960;2023-11-19T01:34:16;6.85;;;4.85;;
29728;SDS011;20055;51.498;11.960;2023-11-19T01:36:43;9.38;;;4.00;;
29728;SDS011;20055;51.498;11.960;2023-11-19T01:39:09;5.13;;;3.60;;
29728;SDS011;20055;51.498;11.960;2023-11-19T01:41:36;6.60;;;3.60;;
29728;SDS011;20055;51.498;11.960;2023-11-19T01:44:02;6.57;;;3.30;;
29728;SDS011;20055;51.498;11.960;2023-11-19T01:46:29;11.75;;;4.50;;
29728;SDS011;20055;51.498;11.960;2023-11-19T01:48:58;6.97;;;3.33;;
29728;SDS011;20055;51.498;11.960;2023-11-19T01:51:25;9.30;;;3.33;;
29728;SDS011;20055;51.498;11.960;2023-11-19T01:53:53;5.53;;;3.22;;
29728;SDS011;20055;51.498;11.960;2023-11-19T01:56:21;6.65;;;3.70;;
29728;SDS011;20055;51.498;11.960;2023-11-19T01:58:48;5.72;;;3.05;;
29728;SDS011;20055;51.498;11.960;2023-11-19T02:01:15;7.10;;;3.65;;
29728;SDS011;20055;51.498;11.960;2023-11-19T02:03:43;7.07;;;3.08;;
29728;SDS011;20055;51.498;11.960;2023-11-19T02:06:09;5.22;;;3.60;;
29728;SDS011;20055;51.498;11.960;2023-11-19T02:08:36;6.00;;;3.45;;
29728;SDS011;20055;51.498;11.960;2023-11-19T02:11:04;5.75;;;3.30;;
29728;SDS011;20055;51.498;11.960;2023-11-19T02:13:32;6.45;;;3.70;;
29728;SDS011;20055;51.498;11.960;2023-11-19T02:15:59;9.73;;;3.55;;
29728;SDS011;20055;51.498;11.960;2023-11-19T02:18:27;7.22;;;3.53;;
29728;SDS011;20055;51.498;11.960;2023-11-19T02:20:55;8.48;;;3.45;;
29728;SDS011;20055;51.498;11.960;2023-11-19T02:28:35;7.70;;;3.13;;
29728;SDS011;20055;51.498;11.960;2023-11-19T02:31:02;5.43;;;3.10;;
29728;SDS011;20055;51.498;11.960;2023-11-19T02:33:30;6.05;;;3.10;;
29728;SDS011;20055;51.498;11.960;2023-11-19T02:35:56;5.30;;;2.67;;
29728;SDS011;20055;51.498;11.960;2023-11-19T02:38:23;5.32;;;2.30;;
29728;SDS011;20055;51.498;11.960;2023-11-19T02:40:49;3.58;;;2.47;;
29728;SDS011;20055;51.498;11.960;2023-11-19T02:43:15;4.25;;;2.50;;
29728;SDS011;20055;51.498;11.960;2023-11-19T02:45:42;3.90;;;2.50;;
29728;SDS011;20055;51.498;11.960;2023-11-19T02:48:11;4.27;;;2.70;;
29728;SDS011;20055;51.498;11.960;2023-11-19T02:50:37;4.47;;;2.30;;
29728;SDS011;20055;51.498;11.960;2023-11-19T02:53:04;4.38;;;2.15;;
29728;SDS011;20055;51.498;11.960;2023-11-19T02:55:32;4.90;;;2.85;;
29728;SDS011;20055;51.498;11.960;2023-11-19T02:58:06;4.75;;;2.00;;
29728;SDS011;20055;51.498;11.960;2023-11-19T03:00:45;4.47;;;2.00;;
29728;SDS011;20055;51.498;11.960;2023-11-19T03:03:23;2.75;;;1.83;;
29728;SDS011;20055;51.498;11.960;2023-11-19T03:05:54;4.57;;;1.48;;
29728;SDS011;20055;51.498;11.960;2023-11-19T03:08:21;3.67;;;2.30;;
29728;SDS011;20055;51.498;11.960;2023-11-19T03:10:48;2.95;;;1.55;;
29728;SDS011;20055;51.498;11.960;2023-11-19T03:13:14;7.78;;;1.75;;
29728;SDS011;20055;51.498;11.960;2023-11-19T03:15:41;2.97;;;1.90;;
29728;SDS011;20055;51.498;11.960;2023-11-19T03:18:07;3.08;;;1.85;;
29728;SDS011;20055;51.498;11.960;2023-11-19T03:20:34;3.38;;;1.55;;
29728;SDS011;20055;51.498;11.960;2023-11-19T03:23:01;2.65;;;1.58;;
29728;SDS011;20055;51.498;11.960;2023-11-19T03:25:27;2.83;;;1.70;;
29728;SDS011;20055;51.498;11.960;2023-11-19T03:28:00;4.45;;;1.65;;
29728;SDS011;20055;51.498;11.960;2023-11-19T03:30:28;6.20;;;1.88;;
29728;SDS011;20055;51.498;11.960;2023-11-19T03:32:55;1.67;;;1.27;;
29728;SDS011;20055;51.498;11.960;2023-11-19T03:35:24;2.45;;;1.50;;
29728;SDS011;20055;51.498;11.960;2023-11-19T03:37:50;1.90;;;1.30;;
29728;SDS011;20055;51.498;11.960;2023-11-19T03:40:17;6.35;;;1.10;;
29728;SDS011;20055;51.498;11.960;2023-11-19T03:42:47;4.28;;;1.25;;
29728;SDS011;20055;51.498;11.960;2023-11-19T03:45:13;2.63;;;1.40;;
29728;SDS011;20055;51.498;11.960;2023-11-19T03:47:42;5.32;;;1.10;;
29728;SDS011;20055;51.498;11.960;2023-11-19T03:50:08;4.10;;;1.30;;
29728;SDS011;20055;51.498;11.960;2023-11-19T03:52:35;1.50;;;1.17;;
29728;SDS011;20055;51.498;11.960;2023-11-19T03:55:01;5.68;;;1.15;;
29728;SDS011;20055;51.498;11.960;2023-11-19T03:57:31;5.37;;;0.93;;
29728;SDS011;20055;51.498;11.960;2023-11-19T03:59:57;2.15;;;1.08;;
29728;SDS011;20055;51.498;11.960;2023-11-19T04:02:24;0.85;;;0.85;;
29728;SDS011;20055;51.498;11.960;2023-11-19T04:04:54;0.75;;;0.75;;
29728;SDS011;20055;51.498;11.960;2023-11-19T04:07:21;2.30;;;0.82;;
29728;SDS011;20055;51.498;11.960;2023-11-19T04:09:47;0.93;;;0.82;;
29728;SDS011;20055;51.498;11.960;2023-11-19T04:12:13;0.88;;;0.70;;
29728;SDS011;20055;51.498;11.960;2023-11-19T04:14:40;0.77;;;0.75;;
29728;SDS011;20055;51.498;11.960;2023-11-19T04:17:07;1.23;;;0.88;;
29728;SDS011;20055;51.498;11.960;2023-11-19T04:19:34;1.48;;;1.10;;
29728;SDS011;20055;51.498;11.960;2023-11-19T04:22:00;4.03;;;1.00;;
29728;SDS011;20055;51.498;11.960;2023-11-19T04:24:26;5.65;;;0.88;;
29728;SDS011;20055;51.498;11.960;2023-11-19T04:26:52;0.98;;;0.77;;
29728;SDS011;20055;51.498;11.960;2023-11-19T04:29:19;1.30;;;0.90;;
29728;SDS011;20055;51.498;11.960;2023-11-19T04:31:45;5.07;;;1.00;;
29728;SDS011;20055;51.498;11.960;2023-11-19T04:34:12;7.68;;;1.48;;
29728;SDS011;20055;51.498;11.960;2023-11-19T04:36:38;2.67;;;0.90;;
29728;SDS011;20055;51.498;11.960;2023-11-19T04:39:05;1.63;;;0.90;;
29728;SDS011;20055;51.498;11.960;2023-11-19T04:41:50;3.33;;;1.10;;
29728;SDS011;20055;51.498;11.960;2023-11-19T04:44:20;1.17;;;1.00;;
29728;SDS011;20055;51.498;11.960;2023-11-19T04:46:46;2.50;;;1.25;;
29728;SDS011;20055;51.498;11.960;2023-11-19T04:49:13;1.27;;;1.10;;
29728;SDS011;20055;51.498;11.960;2023-11-19T04:51:40;1.13;;;0.90;;
29728;SDS011;20055;51.498;11.960;2023-11-19T04:54:10;1.40;;;0.90;;
29728;SDS011;20055;51.498;11.960;2023-11-19T04:56:36;1.15;;;0.82;;
29728;SDS011;20055;51.498;11.960;2023-11-19T04:59:03;2.20;;;0.90;;
29728;SDS011;20055;51.498;11.960;2023-11-19T05:01:31;1.73;;;0.75;;
29728;SDS011;20055;51.498;11.960;2023-11-19T05:03:59;0.60;;;0.60;;
29728;SDS011;20055;51.498;11.960;2023-11-19T05:06:26;1.10;;;0.68;;
29728;SDS011;20055;51.498;11.960;2023-11-19T05:08:58;0.60;;;0.55;;
29728;SDS011;20055;51.498;11.960;2023-11-19T05:11:27;1.00;;;0.88;;
29728;SDS011;20055;51.498;11.960;2023-11-19T05:13:54;0.68;;;0.60;;
29728;SDS011;20055;51.498;11.960;2023-11-19T05:16:20;0.60;;;0.60;;
29728;SDS011;20055;51.498;11.960;2023-11-19T05:18:46;1.75;;;0.70;;
29728;SDS011;20055;51.498;11.960;2023-11-19T05:21:13;0.50;;;0.50;;
29728;SDS011;20055;51.498;11.960;2023-11-19T05:23:39;1.83;;;0.73;;
29728;SDS011;20055;51.498;11.960;2023-11-19T05:26:07;1.58;;;0.60;;
29728;SDS011;20055;51.498;11.960;2023-11-19T05:28:34;0.45;;;0.45;;
29728;SDS011;20055;51.498;11.960;2023-11-19T05:31:01;1.23;;;0.60;;
29728;SDS011;20055;51.498;11.960;2023-11-19T05:33:27;1.45;;;0.55;;
29728;SDS011;20055;51.498;11.960;2023-11-19T05:35:53;2.08;;;0.60;;
29728;SDS011;20055;51.498;11.960;2023-11-19T05:38:19;0.95;;;0.70;;
29728;SDS011;20055;51.498;11.960;2023-11-19T05:40:46;0.73;;;0.65;;
29728;SDS011;20055;51.498;11.960;2023-11-19T05:43:14;0.80;;;0.50;;
29728;SDS011;20055;51.498;11.960;2023-11-19T05:45:42;2.65;;;0.60;;
29728;SDS011;20055;51.498;11.960;2023-11-19T05:48:09;0.60;;;0.60;;
29728;SDS011;20055;51.498;11.960;2023-11-19T05:50:35;1.17;;;0.50;;
29728;SDS011;20055;51.498;11.960;2023-11-19T05:53:01;0.90;;;0.75;;
29728;SDS011;20055;51.498;11.960;2023-11-19T05:55:28;0.98;;;0.68;;
29728;SDS011;20055;51.498;11.960;2023-11-19T05:57:54;0.40;;;0.40;;
29728;SDS011;20055;51.498;11.960;2023-11-19T06:00:21;2.63;;;0.40;;
29728;SDS011;20055;51.498;11.960;2023-11-19T06:02:47;0.57;;;0.50;;
29728;SDS011;20055;51.498;11.960;2023-11-19T06:05:13;0.55;;;0.50;;
29728;SDS011;20055;51.498;11.960;2023-11-19T06:07:39;0.38;;;0.38;;
29728;SDS011;20055;51.498;11.960;2023-11-19T06:10:07;8.82;;;0.60;;
29728;SDS011;20055;51.498;11.960;2023-11-19T06:12:35;1.13;;;0.47;;
29728;SDS011;20055;51.498;11.960;2023-11-19T06:15:04;0.60;;;0.60;;
29728;SDS011;20055;51.498;11.960;2023-11-19T06:17:32;4.22;;;0.80;;
29728;SDS011;20055;51.498;11.960;2023-11-19T06:19:58;0.70;;;0.55;;
29728;SDS011;20055;51.498;11.960;2023-11-19T06:22:24;0.30;;;0.30;;
29728;SDS011;20055;51.498;11.960;2023-11-19T06:24:50;0.50;;;0.50;;
29728;SDS011;20055;51.498;11.960;2023-11-19T06:27:17;0.40;;;0.40;;
29728;SDS011;20055;51.498;11.960;2023-11-19T06:29:43;2.03;;;0.82;;
29728;SDS011;20055;51.498;11.960;2023-11-19T06:32:09;0.82;;;0.68;;
29728;SDS011;20055;51.498;11.960;2023-11-19T06:34:36;0.80;;;0.60;;
29728;SDS011;20055;51.498;11.960;2023-11-19T06:37:02;0.90;;;0.60;;
29728;SDS011;20055;51.498;11.960;2023-11-19T06:39:30;0.50;;;0.50;;
29728;SDS011;20055;51.498;11.960;2023-11-19T06:41:56;1.63;;;0.70;;
29728;SDS011;20055;51.498;11.960;2023-11-19T06:44:22;0.50;;;0.50;;
29728;SDS011;20055;51.498;11.960;2023-11-19T06:46:50;0.60;;;0.60;;
29728;SDS011;20055;51.498;11.960;2023-11-19T06:49:17;0.85;;;0.70;;
29728;SDS011;20055;51.498;11.960;2023-11-19T06:51:43;0.77;;;0.47;;
29728;SDS011;20055;51.498;11.960;2023-11-19T06:54:12;0.50;;;0.50;;
29728;SDS011;20055;51.498;11.960;2023-11-19T06:56:38;0.70;;;0.70;;
29728;SDS011;20055;51.498;11.960;2023-11-19T06:59:04;0.90;;;0.65;;
29728;SDS011;20055;51.498;11.960;2023-11-19T07:01:34;1.02;;;0.63;;
29728;SDS011;20055;51.498;11.960;2023-11-19T07:04:02;3.28;;;0.68;;
29728;SDS011;20055;51.498;11.960;2023-11-19T07:06:35;0.50;;;0.50;;
29728;SDS011;20055;51.498;11.960;2023-11-19T07:09:02;0.45;;;0.45;;
29728;SDS011;20055;51.498;11.960;2023-11-19T07:11:38;0.50;;;0.50;;
29728;SDS011;20055;51.498;11.960;2023-11-19T07:14:05;1.02;;;0.60;;
29728;SDS011;20055;51.498;11.960;2023-11-19T07:16:33;0.82;;;0.60;;
29728;SDS011;20055;51.498;11.960;2023-11-19T07:21:29;0.30;;;0.30;;
29728;SDS011;20055;51.498;11.960;2023-11-19T07:23:55;2.33;;;0.60;;
29728;SDS011;20055;51.498;11.960;2023-11-19T07:26:22;2.05;;;0.60;;
29728;SDS011;20055;51.498;11.960;2023-11-19T07:28:49;1.38;;;0.63;;
29728;SDS011;20055;51.498;11.960;2023-11-19T07:31:16;1.83;;;0.90;;
29728;SDS011;20055;51.498;11.960;2023-11-19T07:33:46;0.50;;;0.40;;
29728;SDS011;20055;51.498;11.960;2023-11-19T07:36:13;0.60;;;0.60;;
29728;SDS011;20055;51.498;11.960;2023-11-19T07:38:39;0.73;;;0.55;;
29728;SDS011;20055;51.498;11.960;2023-11-19T07:41:06;1.13;;;0.40;;
29728;SDS011;20055;51.498;11.960;2023-11-19T07:43:32;1.45;;;0.57;;
29728;SDS011;20055;51.498;11.960;2023-11-19T07:45:59;0.60;;;0.60;;
29728;SDS011;20055;51.498;11.960;2023-11-19T07:48:25;1.50;;;0.55;;
29728;SDS011;20055;51.498;11.960;2023-11-19T07:50:52;0.93;;;0.55;;
29728;SDS011;20055;51.498;11.960;2023-11-19T07:53:19;0.40;;;0.40;;
29728;SDS011;20055;51.498;11.960;2023-11-19T07:55:45;1.75;;;0.55;;
29728;SDS011;20055;51.498;11.960;2023-11-19T07:58:12;2.50;;;0.63;;
29728;SDS011;20055;51.498;11.960;2023-11-19T08:00:38;0.82;;;0.55;;
29728;SDS011;20055;51.498;11.960;2023-11-19T08:03:06;3.22;;;0.70;;
29728;SDS011;20055;51.498;11.960;2023-11-19T08:05:32;0.95;;;0.50;;
29728;SDS011;20055;51.498;11.960;2023-11-19T08:07:59;0.70;;;0.60;;
29728;SDS011;20055;51.498;11.960;2023-11-19T08:10:25;1.15;;;0.63;;
29728;SDS011;20055;51.498;11.960;2023-11-19T08:12:51;2.05;;;0.93;;
29728;SDS011;20055;51.498;11.960;2023-11-19T08:15:18;2.45;;;1.60;;
29728;SDS011;20055;51.498;11.960;2023-11-19T08:17:44;4.10;;;0.82;;
29728;SDS011;20055;51.498;11.960;2023-11-19T08:20:10;1.55;;;0.73;;
29728;SDS011;20055;51.498;11.960;2023-11-19T08:22:37;3.20;;;0.77;;
29728;SDS011;20055;51.498;11.960;2023-11-19T08:25:04;1.08;;;0.70;;
29728;SDS011;20055;51.498;11.960;2023-11-19T08:27:31;3.53;;;0.70;;
29728;SDS011;20055;51.498;11.960;2023-11-19T08:29:58;2.47;;;0.60;;
29728;SDS011;20055;51.498;11.960;2023-11-19T08:32:24;1.08;;;0.70;;
29728;SDS011;20055;51.498;11.960;2023-11-19T08:34:52;2.22;;;0.70;;
29728;SDS011;20055;51.498;11.960;2023-11-19T08:37:19;1.38;;;0.82;;
29728;SDS011;20055;51.498;11.960;2023-11-19T08:39:47;1.00;;;0.68;;
29728;SDS011;20055;51.498;11.960;2023-11-19T08:42:14;3.33;;;0.73;;
29728;SDS011;20055;51.498;11.960;2023-11-19T08:44:40;1.15;;;0.80;;
29728;SDS011;20055;51.498;11.960;2023-11-19T08:47:09;6.55;;;1.17;;
29728;SDS011;20055;51.498;11.960;2023-11-19T08:49:37;0.90;;;0.80;;
29728;SDS011;20055;51.498;11.960;2023-11-19T08:52:03;2.45;;;0.98;;
29728;SDS011;20055;51.498;11.960;2023-11-19T08:54:30;3.25;;;1.00;;
29728;SDS011;20055;51.498;11.960;2023-11-19T08:56:56;3.22;;;0.95;;
29728;SDS011;20055;51.498;11.960;2023-11-19T08:59:22;2.65;;;0.80;;
29728;SDS011;20055;51.498;11.960;2023-11-19T09:01:49;9.88;;;1.30;;
29728;SDS011;20055;51.498;11.960;2023-11-19T09:04:15;5.57;;;1.33;;
29728;SDS011;20055;51.498;11.960;2023-11-19T09:06:42;6.63;;;1.38;;
29728;SDS011;20055;51.498;11.960;2023-11-19T09:09:09;2.35;;;1.08;;
29728;SDS011;20055;51.498;11.960;2023-11-19T09:11:36;6.05;;;1.08;;
29728;SDS011;20055;51.498;11.960;2023-11-19T09:14:03;2.53;;;1.23;;
29728;SDS011;20055;51.498;11.960;2023-11-19T09:16:30;2.28;;;1.05;;
29728;SDS011;20055;51.498;11.960;2023-11-19T09:18:56;5.22;;;1.00;;
29728;SDS011;20055;51.498;11.960;2023-11-19T09:21:24;3.05;;;0.95;;
29728;SDS011;20055;51.498;11.960;2023-11-19T09:23:50;2.78;;;0.93;;
29728;SDS011;20055;51.498;11.960;2023-11-19T09:26:16;2.72;;;1.20;;
29728;SDS011;20055;51.498;11.960;2023-11-19T09:28:43;7.43;;;1.17;;
29728;SDS011;20055;51.498;11.960;2023-11-19T09:31:13;5.68;;;1.38;;
29728;SDS011;20055;51.498;11.960;2023-11-19T09:33:44;6.05;;;1.25;;
29728;SDS011;20055;51.498;11.960;2023-11-19T09:36:14;4.18;;;1.23;;
29728;SDS011;20055;51.498;11.960;2023-11-19T09:38:43;3.20;;;1.23;;
29728;SDS011;20055;51.498;11.960;2023-11-19T09:41:09;2.08;;;0.93;;
29728;SDS011;20055;51.498;11.960;2023-11-19T09:43:39;3.72;;;1.30;;
29728;SDS011;20055;51.498;11.960;2023-11-19T09:46:07;4.15;;;1.02;;
29728;SDS011;20055;51.498;11.960;2023-11-19T09:48:38;7.63;;;1.15;;
29728;SDS011;20055;51.498;11.960;2023-11-19T09:51:06;0.93;;;0.70;;
29728;SDS011;20055;51.498;11.960;2023-11-19T09:53:34;3.65;;;1.23;;
29728;SDS011;20055;51.498;11.960;2023-11-19T09:56:02;5.38;;;1.67;;
29728;SDS011;20055;51.498;11.960;2023-11-19T09:58:29;7.45;;;1.60;;
29728;SDS011;20055;51.498;11.960;2023-11-19T10:00:57;1.83;;;1.05;;
29728;SDS011;20055;51.498;11.960;2023-11-19T10:03:28;6.05;;;1.20;;
29728;SDS011;20055;51.498;11.960;2023-11-19T10:06:03;6.63;;;1.50;;
29728;SDS011;20055;51.498;11.960;2023-11-19T10:08:32;7.18;;;1.23;;
29728;SDS011;20055;51.498;11.960;2023-11-19T10:10:59;3.45;;;1.10;;
29728;SDS011;20055;51.498;11.960;2023-11-19T10:13:26;4.85;;;1.17;;
29728;SDS011;20055;51.498;11.960;2023-11-19T10:15:53;5.25;;;1.40;;
29728;SDS011;20055;51.498;11.960;2023-11-19T10:18:27;6.43;;;1.38;;
29728;SDS011;20055;51.498;11.960;2023-11-19T10:20:54;5.20;;;1.42;;
29728;SDS011;20055;51.498;11.960;2023-11-19T10:23:21;5.57;;;1.83;;
29728;SDS011;20055;51.498;11.960;2023-11-19T10:25:47;6.35;;;2.08;;
29728;SDS011;20055;51.498;11.960;2023-11-19T10:28:16;14.73;;;4.63;;
29728;SDS011;20055;51.498;11.960;2023-11-19T10:30:43;4.53;;;2.63;;
29728;SDS011;20055;51.498;11.960;2023-11-19T10:33:11;13.30;;;2.88;;
29728;SDS011;20055;51.498;11.960;2023-11-19T10:35:56;11.40;;;3.55;;
29728;SDS011;20055;51.498;11.960;2023-11-19T10:38:23;11.90;;;2.45;;
29728;SDS011;20055;51.498;11.960;2023-11-19T10:40:51;8.55;;;1.85;;
29728;SDS011;20055;51.498;11.960;2023-11-19T10:43:18;9.90;;;2.25;;
29728;SDS011;20055;51.498;11.960;2023-11-19T10:45:45;22.13;;;7.28;;
29728;SDS011;20055;51.498;11.960;2023-11-19T10:48:12;13.70;;;3.58;;
29728;SDS011;20055;51.498;11.960;2023-11-19T10:50:42;13.90;;;3.13;;
29728;SDS011;20055;51.498;11.960;2023-11-19T10:53:11;9.73;;;2.70;;
29728;SDS011;20055;51.498;11.960;2023-11-19T10:55:41;13.10;;;3.10;;
29728;SDS011;20055;51.498;11.960;2023-11-19T10:58:15;11.40;;;2.70;;
29728;SDS011;20055;51.498;11.960;2023-11-19T11:00:45;9.20;;;2.15;;
29728;SDS011;20055;51.498;11.960;2023-11-19T11:03:17;8.13;;;2.25;;
29728;SDS011;20055;51.498;11.960;2023-11-19T11:05:48;8.43;;;2.83;;
29728;SDS011;20055;51.498;11.960;2023-11-19T11:08:16;9.30;;;2.55;;
29728;SDS011;20055;51.498;11.960;2023-11-19T11:10:53;16.95;;;2.42;;
29728;SDS011;20055;51.498;11.960;2023-11-19T11:13:27;9.75;;;2.97;;
29728;SDS011;20055;51.498;11.960;2023-11-19T11:15:55;11.18;;;2.78;;
29728;SDS011;20055;51.498;11.960;2023-11-19T11:18:23;9.07;;;1.87;;
29728;SDS011;20055;51.498;11.960;2023-11-19T11:20:52;12.45;;;2.22;;
29728;SDS011;20055;51.498;11.960;2023-11-19T11:23:44;11.50;;;2.50;;
29728;SDS011;20055;51.498;11.960;2023-11-19T11:32:00;16.90;;;4.18;;
29728;SDS011;20055;51.498;11.960;2023-11-19T11:39:52;25.20;;;7.85;;
29728;SDS011;20055;51.498;11.960;2023-11-19T11:45:00;25.75;;;6.97;;
29728;SDS011;20055;51.498;11.960;2023-11-19T11:50:09;18.80;;;4.60;;
29728;SDS011;20055;51.498;11.960;2023-11-19T11:55:26;19.13;;;3.50;;
29728;SDS011;20055;51.498;11.960;2023-11-19T11:58:02;11.48;;;2.78;;
29728;SDS011;20055;51.498;11.960;2023-11-19T12:00:32;26.33;;;3.33;;
29728;SDS011;20055;51.498;11.960;2023-11-19T12:03:03;18.10;;;3.30;;
29728;SDS011;20055;51.498;11.960;2023-11-19T12:05:33;25.38;;;4.40;;
29728;SDS011;20055;51.498;11.960;2023-11-19T12:08:06;27.13;;;5.05;;
29728;SDS011;20055;51.498;11.960;2023-11-19T12:10:48;23.50;;;4.22;;
29728;SDS011;20055;51.498;11.960;2023-11-19T12:13:16;25.02;;;3.60;;
29728;SDS011;20055;51.498;11.960;2023-11-19T12:18:26;25.02;;;4.57;;
29728;SDS011;20055;51.498;11.960;2023-11-19T12:23:20;23.05;;;3.55;;
29728;SDS011;20055;51.498;11.960;2023-11-19T12:25:46;23.60;;;4.07;;
29728;SDS011;20055;51.498;11.960;2023-11-19T12:28:13;16.13;;;3.88;;
29728;SDS011;20055;51.498;11.960;2023-11-19T12:33:09;24.92;;;4.68;;
29728;SDS011;20055;51.498;11.960;2023-11-19T12:35:39;27.60;;;4.38;;
29728;SDS011;20055;51.498;11.960;2023-11-19T12:38:29;26.98;;;4.47;;
29728;SDS011;20055;51.498;11.960;2023-11-19T12:41:07;21.23;;;4.63;;
29728;SDS011;20055;51.498;11.960;2023-11-19T12:43:36;15.85;;;3.50;;
29728;SDS011;20055;51.498;11.960;2023-11-19T12:46:18;28.58;;;4.78;;
29728;SDS011;20055;51.498;11.960;2023-11-19T12:48:49;14.10;;;3.97;;
29728;SDS011;20055;51.498;11.960;2023-11-19T12:51:16;26.70;;;5.35;;
29728;SDS011;20055;51.498;11.960;2023-11-19T12:56:22;21.17;;;3.60;;
29728;SDS011;20055;51.498;11.960;2023-11-19T12:58:49;29.15;;;4.50;;
29728;SDS011;20055;51.498;11.960;2023-11-19T13:01:20;17.30;;;4.30;;
29728;SDS011;20055;51.498;11.960;2023-11-19T13:06:14;32.22;;;4.88;;
29728;SDS011;20055;51.498;11.960;2023-11-19T13:08:47;17.85;;;3.35;;
29728;SDS011;20055;51.498;11.960;2023-11-19T13:11:19;16.70;;;4.95;;
29728;SDS011;20055;51.498;11.960;2023-11-19T13:14:00;23.17;;;3.88;;
29728;SDS011;20055;51.498;11.960;2023-11-19T13:16:36;37.00;;;4.82;;
29728;SDS011;20055;51.498;11.960;2023-11-19T13:19:03;24.88;;;4.28;;
29728;SDS011;20055;51.498;11.960;2023-11-19T13:21:29;27.08;;;4.53;;
29728;SDS011;20055;51.498;11.960;2023-11-19T13:23:56;20.38;;;4.10;;
29728;SDS011;20055;51.498;11.960;2023-11-19T13:26:22;30.35;;;4.88;;
29728;SDS011;20055;51.498;11.960;2023-11-19T13:28:48;27.33;;;3.95;;
29728;SDS011;20055;51.498;11.960;2023-11-19T13:31:15;28.08;;;5.47;;
29728;SDS011;20055;51.498;11.960;2023-11-19T13:33:42;23.30;;;3.90;;
29728;SDS011;20055;51.498;11.960;2023-11-19T13:36:08;18.00;;;3.90;;
29728;SDS011;20055;51.498;11.960;2023-11-19T13:38:35;28.70;;;3.95;;
29728;SDS011;20055;51.498;11.960;2023-11-19T13:41:02;26.55;;;4.75;;
29728;SDS011;20055;51.498;11.960;2023-11-19T13:43:30;27.48;;;4.40;;
29728;SDS011;20055;51.498;11.960;2023-11-19T13:45:57;27.95;;;4.75;;
29728;SDS011;20055;51.498;11.960;2023-11-19T13:48:24;19.67;;;3.90;;
29728;SDS011;20055;51.498;11.960;2023-11-19T13:50:52;24.80;;;4.47;;
29728;SDS011;20055;51.498;11.960;2023-11-19T13:53:19;37.60;;;4.90;;
29728;SDS011;20055;51.498;11.960;2023-11-19T13:55:45;24.83;;;3.60;;
29728;SDS011;20055;51.498;11.960;2023-11-19T13:58:11;28.27;;;4.53;;
29728;SDS011;20055;51.498;11.960;2023-11-19T14:00:38;26.48;;;3.80;;
29728;SDS011;20055;51.498;11.960;2023-11-19T14:03:04;32.13;;;4.70;;
29728;SDS011;20055;51.498;11.960;2023-11-19T14:05:31;24.90;;;4.43;;
29728;SDS011;20055;51.498;11.960;2023-11-19T14:07:57;26.15;;;5.40;;
29728;SDS011;20055;51.498;11.960;2023-11-19T14:10:23;25.70;;;4.78;;
29728;SDS011;20055;51.498;11.960;2023-11-19T14:12:50;33.47;;;5.10;;
29728;SDS011;20055;51.498;11.960;2023-11-19T14:15:16;26.38;;;4.68;;
29728;SDS011;20055;51.498;11.960;2023-11-19T14:17:45;28.65;;;5.53;;
29728;SDS011;20055;51.498;11.960;2023-11-19T14:20:11;21.90;;;4.03;;
29728;SDS011;20055;51.498;11.960;2023-11-19T14:22:43;26.38;;;3.65;;
29728;SDS011;20055;51.498;11.960;2023-11-19T14:25:11;26.75;;;4.88;;
29728;SDS011;20055;51.498;11.960;2023-11-19T14:27:38;28.15;;;4.57;;
29728;SDS011;20055;51.498;11.960;2023-11-19T14:30:08;23.83;;;4.30;;
29728;SDS011;20055;51.498;11.960;2023-11-19T14:32:39;34.22;;;4.65;;
29728;SDS011;20055;51.498;11.960;2023-11-19T14:35:11;24.90;;;4.35;;
29728;SDS011;20055;51.498;11.960;2023-11-19T14:37:38;25.40;;;3.85;;
29728;SDS011;20055;51.498;11.960;2023-11-19T14:40:04;32.10;;;5.22;;
29728;SDS011;20055;51.498;11.960;2023-11-19T14:42:32;23.35;;;4.30;;
29728;SDS011;20055;51.498;11.960;2023-11-19T14:44:59;26.63;;;4.10;;
29728;SDS011;20055;51.498;11.960;2023-11-19T14:47:25;19.10;;;3.55;;
29728;SDS011;20055;51.498;11.960;2023-11-19T14:49:51;24.98;;;4.20;;
29728;SDS011;20055;51.498;11.960;2023-11-19T14:52:18;29.05;;;4.20;;
29728;SDS011;20055;51.498;11.960;2023-11-19T14:54:44;21.00;;;3.97;;
29728;SDS011;20055;51.498;11.960;2023-11-19T14:57:11;29.45;;;3.85;;
29728;SDS011;20055;51.498;11.960;2023-11-19T14:59:39;37.38;;;5.40;;
29728;SDS011;20055;51.498;11.960;2023-11-19T15:02:05;26.95;;;4.55;;
29728;SDS011;20055;51.498;11.960;2023-11-19T15:04:32;22.15;;;4.78;;
29728;SDS011;20055;51.498;11.960;2023-11-19T15:06:58;26.25;;;5.00;;
29728;SDS011;20055;51.498;11.960;2023-11-19T15:09:26;20.35;;;4.07;;
29728;SDS011;20055;51.498;11.960;2023-11-19T15:11:55;19.92;;;4.75;;
29728;SDS011;20055;51.498;11.960;2023-11-19T15:14:24;22.88;;;3.95;;